Time;durP1;ratioP1;P1;durP2;ratioP2;P2;SDS_P1;SDS_P2;PMS_P1;PMS_P2;Temp;Humidity;BMP_temperature;BMP_pressure;BME280_temperature;BME280_humidity;BME280_pressure;Samples;Min_cycle;Max_cycle;Signal;HPM_P1;HPM_P2
2024/03/16 00:02:17;;;;;;;;;;;11.30;99.90;;;;;;6122927;23;19917;-77
2024/03/16 00:04:43;;;;;;;;;;;11.30;99.90;;;;;;6122902;23;19940;-77
2024/03/16 00:07:09;;;;;;;;;;;11.30;99.90;;;;;;6123533;23;19924;-77
2024/03/16 00:09:35;;;;;;;;;;;11.30;99.90;;;;;;6099110;23;19999;-77
2024/03/16 00:12:01;;;;;;;;;;;11.40;99.90;;;;;;6122867;23;19913;-79
2024/03/16 00:14:27;;;;;;;;;;;11.30;99.90;;;;;;6098960;23;19980;-79
2024/03/16 00:16:52;;;;;;;;;;;11.30;99.90;;;;;;6123377;23;19971;-79
2024/03/16 00:19:18;;;;;;;;;;;11.30;99.90;;;;;;6098840;23;20605;-79
2024/03/16 00:21:44;;;;;;;;;;;11.40;99.90;;;;;;6074885;23;19967;-79
2024/03/16 00:24:10;;;;;;;;;;;11.30;99.90;;;;;;6123604;23;19996;-78
2024/03/16 00:26:36;;;;;;;;;;;11.30;99.90;;;;;;6099340;23;19913;-77
2024/03/16 00:29:07;;;;;;;;;;;11.30;99.90;;;;;;6123646;23;19963;-78
2024/03/16 00:31:35;;;;;;;;;;;11.30;99.90;;;;;;6123060;23;19932;-77
2024/03/16 00:34:03;;;;;;;;;;;11.20;99.90;;;;;;6099349;23;19913;-77
2024/03/16 00:36:30;;;;;;;;;;;11.30;99.90;;;;;;6122661;23;19928;-78
2024/03/16 00:38:56;;;;;;;;;;;11.30;99.90;;;;;;6099128;23;19920;-77
2024/03/16 00:41:23;;;;;;;;;;;11.20;99.90;;;;;;6123223;23;19943;-77
2024/03/16 00:43:48;;;;;;;;;;;11.20;99.90;;;;;;6122809;23;19949;-78
2024/03/16 00:46:14;;;;;;;;;;;11.20;99.90;;;;;;6076204;23;19984;-77
2024/03/16 00:48:40;;;;;;;;;;;11.20;99.90;;;;;;6075176;23;19932;-77
2024/03/16 00:51:07;;;;;;;;;;;11.20;99.90;;;;;;6122723;23;19913;-77
2024/03/16 00:53:33;;;;;;;;;;;11.20;99.90;;;;;;6098740;23;19980;-77
2024/03/16 00:55:59;;;;;;;;;;;11.20;99.90;;;;;;6098685;23;19909;-77
2024/03/16 00:58:24;;;;;;;;;;;11.20;99.90;;;;;;6122448;23;19937;-77
2024/03/16 01:01:04;;;;;;;;;;;11.20;99.90;;;;;;5144072;27;19920;-77
2024/03/16 01:03:29;;;;;;;;;;;11.30;99.90;;;;;;5102321;28;19946;-76
2024/03/16 01:05:55;;;;;;;;;;;11.30;99.90;;;;;;5092221;28;19935;-77
2024/03/16 01:08:20;;;;;;;;;;;11.30;99.90;;;;;;5089090;28;20167;-77
2024/03/16 01:10:51;;;;;;;;;;;11.20;99.90;;;;;;5090667;28;20321;-77
2024/03/16 01:13:17;;;;;;;;;;;11.30;99.90;;;;;;5089906;28;19974;-77
2024/03/16 01:15:43;;;;;;;;;;;11.20;99.90;;;;;;5073721;28;19994;-79
2024/03/16 01:18:08;;;;;;;;;;;11.20;99.90;;;;;;5073611;28;19916;-76
2024/03/16 01:20:34;;;;;;;;;;;11.20;99.90;;;;;;5090550;28;19929;-77
2024/03/16 01:23:04;;;;;;;;;;;11.30;99.90;;;;;;5093726;28;19923;-76
2024/03/16 01:25:29;;;;;;;;;;;11.20;99.90;;;;;;5072989;28;19966;-77
2024/03/16 01:27:56;;;;;;;;;;;11.20;99.90;;;;;;5057086;28;19917;-77
2024/03/16 01:30:24;;;;;;;;;;;11.20;99.90;;;;;;5076342;28;20446;-77
2024/03/16 01:32:50;;;;;;;;;;;11.20;99.90;;;;;;5093795;28;19920;-76
2024/03/16 01:35:15;;;;;;;;;;;11.20;99.90;;;;;;5093313;28;20244;-76
2024/03/16 01:37:41;;;;;;;;;;;11.20;99.90;;;;;;5072761;28;19927;-77
2024/03/16 01:40:07;;;;;;;;;;;11.20;99.90;;;;;;5084877;28;19936;-77
2024/03/16 01:42:32;;;;;;;;;;;11.20;99.90;;;;;;5071537;28;20421;-76
2024/03/16 01:45:02;;;;;;;;;;;11.20;99.90;;;;;;5098904;28;19955;-79
2024/03/16 01:47:27;;;;;;;;;;;11.20;99.90;;;;;;5089655;28;20240;-76
2024/03/16 01:49:53;;;;;;;;;;;11.20;99.90;;;;;;5072353;28;19916;-77
2024/03/16 01:52:19;;;;;;;;;;;11.20;99.90;;;;;;5109204;28;19912;-77
2024/03/16 01:54:44;;;;;;;;;;;11.20;99.90;;;;;;5083862;28;19916;-77
2024/03/16 01:57:10;;;;;;;;;;;11.20;99.90;;;;;;5080121;28;19916;-77
2024/03/16 01:59:36;;;;;;;;;;;11.20;99.90;;;;;;5089908;28;19924;-77
2024/03/16 02:02:03;;;;;;;;;;;11.20;99.90;;;;;;5105912;28;19912;-77
2024/03/16 02:04:29;;;;;;;;;;;11.20;99.90;;;;;;5088944;28;19916;-77
2024/03/16 02:06:54;;;;;;;;;;;11.10;99.90;;;;;;5087043;28;20039;-78
2024/03/16 02:09:21;;;;;;;;;;;11.10;99.90;;;;;;5089997;28;19916;-78
2024/03/16 02:11:49;;;;;;;;;;;11.10;99.90;;;;;;5082275;28;19985;-77
2024/03/16 02:14:15;;;;;;;;;;;11.10;99.90;;;;;;5061706;28;19924;-77
2024/03/16 02:16:41;;;;;;;;;;;11.10;99.90;;;;;;5078178;28;19916;-77
2024/03/16 02:19:08;;;;;;;;;;;11.00;99.90;;;;;;5059352;28;19931;-77
2024/03/16 02:21:34;;;;;;;;;;;11.00;99.90;;;;;;5075638;28;19916;-77
2024/03/16 02:24:00;;;;;;;;;;;11.00;99.90;;;;;;5094708;28;19920;-77
2024/03/16 02:26:25;;;;;;;;;;;11.00;99.90;;;;;;5078257;28;19969;-78
2024/03/16 02:28:51;;;;;;;;;;;11.00;99.90;;;;;;5095586;28;19913;-78
2024/03/16 02:31:18;;;;;;;;;;;11.00;99.90;;;;;;5071533;28;20249;-77
2024/03/16 02:33:43;;;;;;;;;;;11.00;99.90;;;;;;5072902;28;20241;-77
2024/03/16 02:36:09;;;;;;;;;;;10.90;99.90;;;;;;5094918;28;19917;-76
2024/03/16 02:38:35;;;;;;;;;;;10.90;99.90;;;;;;5094262;28;19955;-77
2024/03/16 02:41:02;;;;;;;;;;;11.00;99.90;;;;;;5077711;28;19973;-77
2024/03/16 02:43:28;;;;;;;;;;;10.90;99.90;;;;;;5093251;28;19920;-77
2024/03/16 02:45:57;;;;;;;;;;;10.90;99.90;;;;;;5079650;28;19924;-77
2024/03/16 02:48:23;;;;;;;;;;;10.90;99.90;;;;;;5075710;28;19974;-76
2024/03/16 02:50:48;;;;;;;;;;;10.90;99.90;;;;;;5091476;28;19916;-78
2024/03/16 02:53:14;;;;;;;;;;;10.90;99.90;;;;;;5068059;28;19989;-76
2024/03/16 02:55:40;;;;;;;;;;;10.90;99.90;;;;;;5039492;28;19917;-76
2024/03/16 02:58:05;;;;;;;;;;;10.90;99.90;;;;;;5057220;28;19963;-77
2024/03/16 03:00:31;;;;;;;;;;;10.90;99.90;;;;;;5045373;28;19978;-78
2024/03/16 03:02:57;;;;;;;;;;;10.90;99.90;;;;;;5077469;28;19924;-78
2024/03/16 03:05:23;;;;;;;;;;;10.80;99.90;;;;;;5077503;28;19985;-76
2024/03/16 03:07:49;;;;;;;;;;;10.80;99.90;;;;;;5054629;28;19985;-78
2024/03/16 03:10:14;;;;;;;;;;;10.80;99.90;;;;;;5090927;28;20014;-77
2024/03/16 03:12:40;;;;;;;;;;;10.80;99.90;;;;;;5073751;28;19920;-77
2024/03/16 03:15:06;;;;;;;;;;;10.80;99.90;;;;;;5065676;28;19917;-77
2024/03/16 03:17:32;;;;;;;;;;;10.70;99.90;;;;;;5042613;28;19973;-77
2024/03/16 03:19:58;;;;;;;;;;;10.70;99.90;;;;;;5076694;28;19920;-77
2024/03/16 03:22:24;;;;;;;;;;;10.70;99.90;;;;;;5064656;28;19922;-77
2024/03/16 03:24:49;;;;;;;;;;;10.70;99.90;;;;;;5051269;28;19974;-77
2024/03/16 03:27:15;;;;;;;;;;;10.70;99.90;;;;;;5056895;28;19925;-77
2024/03/16 03:29:41;;;;;;;;;;;10.70;99.90;;;;;;5073164;28;19916;-77
2024/03/16 03:32:06;;;;;;;;;;;10.70;99.90;;;;;;5055728;28;19978;-77
2024/03/16 03:34:32;;;;;;;;;;;10.60;99.90;;;;;;5089138;28;20269;-77
2024/03/16 03:36:58;;;;;;;;;;;10.60;99.90;;;;;;5067085;28;20015;-78
2024/03/16 03:39:24;;;;;;;;;;;10.70;99.90;;;;;;5058310;28;19927;-78
2024/03/16 03:41:50;;;;;;;;;;;10.70;99.90;;;;;;5075754;28;19913;-77
2024/03/16 03:44:23;;;;;;;;;;;10.60;99.90;;;;;;5084460;28;19913;-76
2024/03/16 03:46:50;;;;;;;;;;;10.70;99.90;;;;;;5071932;28;19917;-78
2024/03/16 03:49:36;;;;;;;;;;;10.70;99.90;;;;;;5088945;28;20054;-76
2024/03/16 03:52:02;;;;;;;;;;;10.60;99.90;;;;;;5094624;28;19952;-78
2024/03/16 03:54:28;;;;;;;;;;;10.60;99.90;;;;;;5058993;28;20264;-77
2024/03/16 03:56:54;;;;;;;;;;;10.70;99.90;;;;;;5076261;28;19999;-77
2024/03/16 03:59:19;;;;;;;;;;;10.60;99.90;;;;;;5108657;28;19971;-76
2024/03/16 04:01:45;;;;;;;;;;;10.60;99.90;;;;;;5092454;28;19916;-78
2024/03/16 04:04:11;;;;;;;;;;;10.60;99.90;;;;;;5075628;28;20335;-78
2024/03/16 04:06:36;;;;;;;;;;;10.70;99.90;;;;;;5075630;28;19924;-77
2024/03/16 04:09:02;;;;;;;;;;;10.60;99.90;;;;;;5070837;28;20011;-78
2024/03/16 04:11:28;;;;;;;;;;;10.60;99.90;;;;;;5075575;28;19916;-77
2024/03/16 04:13:54;;;;;;;;;;;10.60;99.90;;;;;;5058683;28;20278;-78
2024/03/16 04:16:19;;;;;;;;;;;10.60;99.90;;;;;;5092256;28;19912;-77
2024/03/16 04:18:45;;;;;;;;;;;10.60;99.90;;;;;;5063900;28;19986;-77
2024/03/16 04:21:11;;;;;;;;;;;10.60;99.90;;;;;;5091086;28;20271;-77
2024/03/16 04:23:36;;;;;;;;;;;10.60;99.90;;;;;;5091776;28;19928;-77
2024/03/16 04:26:02;;;;;;;;;;;10.60;99.90;;;;;;5068106;28;19919;-78
2024/03/16 04:28:28;;;;;;;;;;;10.60;99.90;;;;;;5081615;28;20687;-77
2024/03/16 04:30:54;;;;;;;;;;;10.60;99.90;;;;;;5075572;28;19916;-77
2024/03/16 04:33:19;;;;;;;;;;;10.60;99.90;;;;;;5056790;28;19917;-76
2024/03/16 04:35:45;;;;;;;;;;;10.60;99.90;;;;;;5041895;28;20006;-78
2024/03/16 04:38:11;;;;;;;;;;;10.70;99.90;;;;;;5058934;28;19916;-77
2024/03/16 04:40:37;;;;;;;;;;;10.70;99.90;;;;;;5039330;28;20245;-77
2024/03/16 04:43:02;;;;;;;;;;;10.70;99.90;;;;;;5091269;28;19912;-77
2024/03/16 04:45:29;;;;;;;;;;;10.70;99.90;;;;;;5074888;28;20309;-76
2024/03/16 04:47:55;;;;;;;;;;;10.70;99.90;;;;;;5064578;28;19913;-77
2024/03/16 04:50:21;;;;;;;;;;;10.70;99.90;;;;;;5054918;28;19947;-78
2024/03/16 04:52:46;;;;;;;;;;;10.70;99.90;;;;;;5087071;28;19920;-76
2024/03/16 04:55:12;;;;;;;;;;;10.70;99.90;;;;;;5079393;28;19916;-77
2024/03/16 04:57:38;;;;;;;;;;;10.70;99.90;;;;;;5058525;28;19912;-77
2024/03/16 05:00:04;;;;;;;;;;;10.70;99.90;;;;;;5075156;28;19931;-79
2024/03/16 05:02:30;;;;;;;;;;;10.70;99.90;;;;;;5076016;28;19916;-76
2024/03/16 05:04:56;;;;;;;;;;;10.70;99.90;;;;;;5074439;28;19944;-78
2024/03/16 05:07:22;;;;;;;;;;;10.70;99.90;;;;;;5047635;28;19978;-78
2024/03/16 05:09:48;;;;;;;;;;;10.60;99.90;;;;;;5066858;28;19916;-78
2024/03/16 05:12:14;;;;;;;;;;;10.60;99.90;;;;;;5039523;28;19927;-78
2024/03/16 05:14:39;;;;;;;;;;;10.60;99.90;;;;;;5073613;28;19916;-78
2024/03/16 05:17:05;;;;;;;;;;;10.60;99.90;;;;;;5041040;28;20240;-78
2024/03/16 05:19:32;;;;;;;;;;;10.60;99.90;;;;;;5057106;28;19920;-78
2024/03/16 05:21:57;;;;;;;;;;;10.70;99.90;;;;;;5074999;28;19916;-77
2024/03/16 05:24:23;;;;;;;;;;;10.60;99.90;;;;;;5040594;28;20233;-78
2024/03/16 05:26:49;;;;;;;;;;;10.60;99.90;;;;;;5074358;28;19948;-78
2024/03/16 05:29:15;;;;;;;;;;;10.60;99.90;;;;;;5092494;28;19919;-76
2024/03/16 05:31:42;;;;;;;;;;;10.60;99.90;;;;;;5038422;28;19924;-77
2024/03/16 05:34:07;;;;;;;;;;;10.70;99.90;;;;;;5041211;28;19921;-77
2024/03/16 05:36:33;;;;;;;;;;;10.60;99.90;;;;;;5061788;28;20356;-76
2024/03/16 05:38:59;;;;;;;;;;;10.60;99.90;;;;;;5038168;28;19913;-77
2024/03/16 05:41:25;;;;;;;;;;;10.60;99.90;;;;;;5076508;28;20218;-78
2024/03/16 05:43:53;;;;;;;;;;;10.70;99.90;;;;;;5074135;28;19920;-76
2024/03/16 05:46:18;;;;;;;;;;;10.60;99.90;;;;;;5092004;28;19912;-77
2024/03/16 05:48:44;;;;;;;;;;;10.60;99.90;;;;;;5077327;28;19917;-77
2024/03/16 05:51:09;;;;;;;;;;;10.60;99.90;;;;;;5059294;28;19916;-77
2024/03/16 05:53:35;;;;;;;;;;;10.60;99.90;;;;;;5093644;28;20371;-77
2024/03/16 05:56:01;;;;;;;;;;;10.60;99.90;;;;;;5093766;28;19916;-78
2024/03/16 05:58:28;;;;;;;;;;;10.60;99.90;;;;;;5076136;28;19920;-78
2024/03/16 06:00:53;;;;;;;;;;;10.60;99.90;;;;;;5076525;28;20017;-78
2024/03/16 06:03:19;;;;;;;;;;;10.60;99.90;;;;;;5076260;28;19977;-78
2024/03/16 06:05:45;;;;;;;;;;;10.60;99.90;;;;;;5075990;28;20607;-78
2024/03/16 06:08:11;;;;;;;;;;;10.60;99.90;;;;;;5093985;28;19916;-78
2024/03/16 06:10:37;;;;;;;;;;;10.60;99.90;;;;;;5092829;28;19921;-77
2024/03/16 06:13:02;;;;;;;;;;;10.60;99.90;;;;;;5076016;28;20380;-78
2024/03/16 06:15:28;;;;;;;;;;;10.60;99.90;;;;;;5093353;28;19962;-77
2024/03/16 06:17:54;;;;;;;;;;;10.60;99.90;;;;;;5056362;28;19921;-77
2024/03/16 06:20:19;;;;;;;;;;;10.60;99.90;;;;;;5084607;28;20291;-77
2024/03/16 06:22:45;;;;;;;;;;;10.60;99.90;;;;;;5075693;28;19913;-77
2024/03/16 06:25:13;;;;;;;;;;;10.60;99.90;;;;;;5076615;28;19981;-77
2024/03/16 06:27:49;;;;;;;;;;;10.60;99.90;;;;;;5076135;28;19920;-77
2024/03/16 06:30:19;;;;;;;;;;;10.60;99.90;;;;;;5072676;28;19917;-77
2024/03/16 06:33:05;;;;;;;;;;;10.60;99.90;;;;;;5059416;28;19956;-77
2024/03/16 06:35:30;;;;;;;;;;;10.60;99.90;;;;;;5096066;28;19918;-77
2024/03/16 06:37:56;;;;;;;;;;;10.60;99.90;;;;;;5063188;28;20002;-77
2024/03/16 06:40:22;;;;;;;;;;;10.60;99.90;;;;;;5076202;28;19927;-77
2024/03/16 06:42:47;;;;;;;;;;;10.60;99.90;;;;;;5085884;28;19912;-77
2024/03/16 06:45:14;;;;;;;;;;;10.60;99.90;;;;;;5071679;28;19917;-77
2024/03/16 06:47:39;;;;;;;;;;;10.60;99.90;;;;;;5055177;28;19913;-77
2024/03/16 06:50:06;;;;;;;;;;;10.70;99.90;;;;;;5077365;28;19924;-77
2024/03/16 06:52:32;;;;;;;;;;;10.70;99.90;;;;;;5055838;28;19913;-77
2024/03/16 06:54:58;;;;;;;;;;;10.70;99.90;;;;;;5071488;28;19996;-77
2024/03/16 06:57:24;;;;;;;;;;;10.70;99.90;;;;;;5070648;28;19916;-77
2024/03/16 06:59:50;;;;;;;;;;;10.70;99.90;;;;;;5044196;28;20321;-77
2024/03/16 07:02:18;;;;;;;;;;;10.70;99.90;;;;;;5091620;28;19923;-77
2024/03/16 07:04:43;;;;;;;;;;;10.70;99.90;;;;;;5076195;28;19916;-77
2024/03/16 07:07:09;;;;;;;;;;;10.70;99.90;;;;;;5075454;28;20337;-77
2024/03/16 07:09:34;;;;;;;;;;;10.70;99.90;;;;;;5076552;28;19916;-77
2024/03/16 07:12:00;;;;;;;;;;;10.70;99.90;;;;;;5076581;28;19923;-77
2024/03/16 07:14:26;;;;;;;;;;;10.70;99.90;;;;;;5053309;28;19913;-78
2024/03/16 07:16:54;;;;;;;;;;;10.60;99.90;;;;;;5072399;28;19948;-78
2024/03/16 07:19:23;;;;;;;;;;;10.60;99.90;;;;;;5055259;28;20383;-77
2024/03/16 07:21:49;;;;;;;;;;;10.50;99.90;;;;;;5070856;28;19917;-77
2024/03/16 07:24:15;;;;;;;;;;;10.50;99.90;;;;;;5105092;28;19920;-77
2024/03/16 07:26:41;;;;;;;;;;;10.50;99.90;;;;;;5092123;28;19979;-77
2024/03/16 07:29:06;;;;;;;;;;;10.50;99.90;;;;;;5081924;28;19916;-77
2024/03/16 07:31:32;;;;;;;;;;;10.50;99.90;;;;;;5091417;28;19961;-77
2024/03/16 07:33:59;;;;;;;;;;;10.60;99.90;;;;;;5075078;28;19969;-77
2024/03/16 07:36:24;;;;;;;;;;;10.60;99.90;;;;;;5072682;28;19916;-77
2024/03/16 07:38:50;;;;;;;;;;;10.60;99.90;;;;;;5059534;28;19923;-78
2024/03/16 07:41:16;;;;;;;;;;;10.60;99.90;;;;;;5074044;28;19916;-76
2024/03/16 07:43:45;;;;;;;;;;;10.60;99.90;;;;;;5055321;28;19973;-78
2024/03/16 07:46:15;;;;;;;;;;;10.60;99.90;;;;;;5073693;28;19917;-76
2024/03/16 07:48:43;;;;;;;;;;;10.60;99.90;;;;;;5073621;28;19916;-77
2024/03/16 07:51:09;;;;;;;;;;;10.70;99.90;;;;;;5041702;28;19970;-77
2024/03/16 07:53:35;;;;;;;;;;;10.70;99.90;;;;;;5038747;28;20412;-77
2024/03/16 07:56:04;;;;;;;;;;;10.70;99.90;;;;;;5059013;28;20004;-77
2024/03/16 07:58:30;;;;;;;;;;;10.80;99.90;;;;;;5075465;28;19966;-77
2024/03/16 08:00:56;;;;;;;;;;;10.80;99.90;;;;;;5076211;28;19960;-79
2024/03/16 08:03:22;;;;;;;;;;;10.90;99.90;;;;;;5059482;28;19918;-77
2024/03/16 08:05:47;;;;;;;;;;;10.80;99.90;;;;;;5058319;28;19917;-77
2024/03/16 08:08:13;;;;;;;;;;;10.90;99.90;;;;;;5072931;28;20375;-76
2024/03/16 08:10:39;;;;;;;;;;;10.90;99.90;;;;;;5059307;28;19962;-78
2024/03/16 08:13:04;;;;;;;;;;;10.90;99.90;;;;;;5059429;28;19917;-77
2024/03/16 08:15:30;;;;;;;;;;;10.90;99.90;;;;;;5071535;28;19912;-77
2024/03/16 08:17:57;;;;;;;;;;;11.00;99.90;;;;;;5060099;28;19921;-78
2024/03/16 08:20:23;;;;;;;;;;;11.00;99.90;;;;;;5076985;28;19928;-78
2024/03/16 08:22:53;;;;;;;;;;;10.90;99.90;;;;;;5039518;28;19920;-78
2024/03/16 08:25:19;;;;;;;;;;;10.90;99.90;;;;;;5040738;28;20597;-77
2024/03/16 08:27:45;;;;;;;;;;;10.90;99.90;;;;;;5074192;28;19927;-77
2024/03/16 08:30:11;;;;;;;;;;;10.80;99.90;;;;;;5076518;28;19912;-77
2024/03/16 08:32:36;;;;;;;;;;;10.80;99.90;;;;;;5075544;28;19978;-77
2024/03/16 08:35:03;;;;;;;;;;;10.80;99.90;;;;;;5058337;28;19916;-78
2024/03/16 08:37:29;;;;;;;;;;;10.80;99.90;;;;;;5075379;28;20343;-78
2024/03/16 08:39:55;;;;;;;;;;;10.70;99.90;;;;;;5073327;28;19916;-76
2024/03/16 08:42:20;;;;;;;;;;;10.60;99.90;;;;;;5040550;28;19955;-77
2024/03/16 08:44:46;;;;;;;;;;;10.70;99.90;;;;;;5073374;28;20313;-76
2024/03/16 08:47:12;;;;;;;;;;;10.70;99.90;;;;;;5037111;28;19920;-76
2024/03/16 08:49:37;;;;;;;;;;;10.50;99.90;;;;;;5071318;28;19917;-78
2024/03/16 08:52:04;;;;;;;;;;;10.50;99.90;;;;;;5072494;28;19997;-79
2024/03/16 08:54:29;;;;;;;;;;;10.50;99.90;;;;;;5073003;28;20012;-78
2024/03/16 08:56:57;;;;;;;;;;;10.40;99.90;;;;;;5088690;28;19924;-78
2024/03/16 08:59:22;;;;;;;;;;;10.50;99.90;;;;;;5084142;28;19971;-80
2024/03/16 09:01:48;;;;;;;;;;;10.50;99.90;;;;;;5090372;28;19952;-78
2024/03/16 09:04:15;;;;;;;;;;;10.60;99.90;;;;;;5063868;28;20019;-78
2024/03/16 09:06:41;;;;;;;;;;;10.60;99.90;;;;;;5075334;28;20396;-76
2024/03/16 09:09:12;;;;;;;;;;;10.40;99.90;;;;;;5040922;28;19980;-77
2024/03/16 09:11:38;;;;;;;;;;;10.40;99.90;;;;;;5074358;28;19960;-76
2024/03/16 09:14:07;;;;;;;;;;;10.30;99.90;;;;;;5074495;28;20304;-77
2024/03/16 09:16:40;;;;;;;;;;;10.20;99.90;;;;;;5040059;28;19995;-76
2024/03/16 09:19:06;;;;;;;;;;;10.10;99.90;;;;;;5056661;28;20004;-76
2024/03/16 09:21:32;;;;;;;;;;;10.10;99.90;;;;;;5091180;28;20003;-76
2024/03/16 09:23:57;;;;;;;;;;;10.10;99.90;;;;;;5090814;28;19920;-76
2024/03/16 09:26:23;;;;;;;;;;;10.10;99.90;;;;;;5058238;28;19917;-76
2024/03/16 09:28:49;;;;;;;;;;;10.10;99.90;;;;;;5054364;28;19917;-76
2024/03/16 09:31:15;;;;;;;;;;;10.10;99.90;;;;;;5073775;28;19912;-77
2024/03/16 09:33:40;;;;;;;;;;;10.10;99.90;;;;;;5063060;28;19916;-75
2024/03/16 09:36:06;;;;;;;;;;;9.90;99.90;;;;;;5080699;28;19912;-76
2024/03/16 09:38:34;;;;;;;;;;;9.80;99.90;;;;;;5059481;28;20058;-76
2024/03/16 09:41:00;;;;;;;;;;;9.60;99.90;;;;;;5081134;28;20306;-76
2024/03/16 09:43:26;;;;;;;;;;;9.70;99.90;;;;;;5076960;28;19927;-76
2024/03/16 09:45:53;;;;;;;;;;;9.60;99.90;;;;;;5043539;28;20219;-76
2024/03/16 09:48:19;;;;;;;;;;;9.50;99.90;;;;;;5051261;28;19952;-76
2024/03/16 09:50:47;;;;;;;;;;;9.50;99.90;;;;;;5062901;28;19924;-77
2024/03/16 09:53:22;;;;;;;;;;;9.60;99.90;;;;;;5096669;28;20341;-76
2024/03/16 09:55:50;;;;;;;;;;;9.50;99.90;;;;;;5062846;28;19944;-76
2024/03/16 09:58:17;;;;;;;;;;;9.50;99.90;;;;;;5043579;28;20349;-77
2024/03/16 10:00:44;;;;;;;;;;;9.60;99.90;;;;;;5079568;28;19928;-77
2024/03/16 10:03:10;;;;;;;;;;;9.60;99.90;;;;;;5092870;28;19921;-77
2024/03/16 10:05:36;;;;;;;;;;;9.70;99.90;;;;;;5062127;28;19912;-77
2024/03/16 10:08:01;;;;;;;;;;;9.60;99.90;;;;;;5062454;28;19983;-77
2024/03/16 10:10:27;;;;;;;;;;;9.50;99.90;;;;;;5095485;28;19981;-76
2024/03/16 10:12:59;;;;;;;;;;;9.50;99.90;;;;;;5078734;28;19923;-76
2024/03/16 10:15:26;;;;;;;;;;;9.50;99.90;;;;;;5059231;28;19916;-76
2024/03/16 10:17:53;;;;;;;;;;;9.40;99.90;;;;;;5059198;28;19917;-76
2024/03/16 10:20:18;;;;;;;;;;;9.40;99.90;;;;;;5071414;28;20311;-77
2024/03/16 10:22:47;;;;;;;;;;;9.50;99.90;;;;;;5062421;28;19927;-76
2024/03/16 10:25:13;;;;;;;;;;;9.50;99.90;;;;;;5079941;28;19920;-77
2024/03/16 10:27:42;;;;;;;;;;;9.50;99.90;;;;;;5078678;28;20251;-76
2024/03/16 10:30:10;;;;;;;;;;;9.50;99.90;;;;;;5064542;28;19974;-76
2024/03/16 10:32:37;;;;;;;;;;;9.50;99.90;;;;;;5081951;28;19913;-76
2024/03/16 10:35:07;;;;;;;;;;;9.50;99.90;;;;;;5071495;28;19916;-76
2024/03/16 10:37:35;;;;;;;;;;;9.40;99.90;;;;;;5073731;28;19925;-76
2024/03/16 10:40:01;;;;;;;;;;;9.50;99.90;;;;;;5071548;28;20399;-76
2024/03/16 10:42:26;;;;;;;;;;;9.20;99.90;;;;;;5046101;28;19912;-76
2024/03/16 10:44:52;;;;;;;;;;;9.20;99.90;;;;;;5065632;28;19966;-76
2024/03/16 10:47:20;;;;;;;;;;;9.00;99.90;;;;;;5069783;28;20222;-75
2024/03/16 10:49:49;;;;;;;;;;;9.00;99.90;;;;;;5078112;28;19917;-77
2024/03/16 10:52:14;;;;;;;;;;;8.80;99.90;;;;;;5077692;28;20272;-76
2024/03/16 10:54:40;;;;;;;;;;;8.80;99.90;;;;;;5071509;28;20374;-77
2024/03/16 10:57:07;;;;;;;;;;;8.80;99.90;;;;;;5110393;28;19917;-77
2024/03/16 10:59:34;;;;;;;;;;;9.00;99.90;;;;;;5093304;28;19921;-77
2024/03/16 11:02:01;;;;;;;;;;;9.00;99.90;;;;;;5077480;28;19928;-76
2024/03/16 11:04:27;;;;;;;;;;;9.10;99.90;;;;;;5077117;28;19925;-76
2024/03/16 11:06:54;;;;;;;;;;;9.10;99.90;;;;;;5060611;28;19916;-76
2024/03/16 11:09:27;;;;;;;;;;;9.20;99.90;;;;;;5044575;28;20353;-76
2024/03/16 11:11:54;;;;;;;;;;;9.20;99.90;;;;;;5077132;28;19920;-77
2024/03/16 11:14:20;;;;;;;;;;;9.30;99.90;;;;;;5077689;28;19952;-76
2024/03/16 11:16:52;;;;;;;;;;;9.30;99.90;;;;;;5054949;28;19912;-76
2024/03/16 11:19:21;;;;;;;;;;;9.20;99.90;;;;;;5062785;28;20646;-76
2024/03/16 11:21:48;;;;;;;;;;;9.10;99.90;;;;;;5098852;28;19912;-76
2024/03/16 11:24:16;;;;;;;;;;;8.90;99.90;;;;;;5089473;28;19913;-76
2024/03/16 11:26:43;;;;;;;;;;;8.80;99.90;;;;;;5056530;28;20023;-77
2024/03/16 11:29:15;;;;;;;;;;;8.80;99.90;;;;;;5075949;28;19913;-77
2024/03/16 11:31:41;;;;;;;;;;;8.80;99.90;;;;;;5043633;28;19912;-76
2024/03/16 11:34:13;;;;;;;;;;;8.70;99.90;;;;;;5075559;28;19916;-76
2024/03/16 11:36:44;;;;;;;;;;;8.70;99.90;;;;;;5076474;28;19923;-77
2024/03/16 11:39:14;;;;;;;;;;;8.70;99.90;;;;;;5085490;28;19912;-76
2024/03/16 11:41:44;;;;;;;;;;;8.70;99.90;;;;;;5092938;28;19924;-77
2024/03/16 11:44:12;;;;;;;;;;;8.60;99.90;;;;;;5051350;28;19999;-76
2024/03/16 11:46:38;;;;;;;;;;;8.70;99.90;;;;;;5075059;28;20248;-76
2024/03/16 11:49:05;;;;;;;;;;;8.70;99.90;;;;;;5065062;28;19960;-77
2024/03/16 11:51:31;;;;;;;;;;;8.70;99.90;;;;;;5078353;28;19927;-76
2024/03/16 11:53:58;;;;;;;;;;;8.70;99.90;;;;;;5045367;28;20232;-77
2024/03/16 11:56:24;;;;;;;;;;;8.70;99.90;;;;;;5108352;28;21249;-77
2024/03/16 11:58:50;;;;;;;;;;;8.70;99.90;;;;;;5079994;28;19920;-77
2024/03/16 12:01:21;;;;;;;;;;;8.90;99.90;;;;;;5046113;28;19920;-77
2024/03/16 12:03:48;;;;;;;;;;;9.00;99.90;;;;;;5084939;28;19912;-77
2024/03/16 12:06:13;;;;;;;;;;;9.00;99.90;;;;;;5079988;28;19955;-76
2024/03/16 12:08:39;;;;;;;;;;;9.00;99.90;;;;;;5046911;28;19913;-78
2024/03/16 12:11:08;;;;;;;;;;;9.00;99.90;;;;;;5079944;28;19974;-76
2024/03/16 12:13:34;;;;;;;;;;;9.00;99.90;;;;;;5096099;28;19912;-77
2024/03/16 12:16:02;;;;;;;;;;;9.00;99.90;;;;;;5079807;28;19946;-77
2024/03/16 12:18:28;;;;;;;;;;;9.00;99.90;;;;;;5063961;28;19999;-76
2024/03/16 12:20:54;;;;;;;;;;;9.00;99.90;;;;;;5097206;28;19970;-76
2024/03/16 12:23:20;;;;;;;;;;;9.00;99.90;;;;;;5072812;28;19923;-77
2024/03/16 12:25:46;;;;;;;;;;;9.00;99.90;;;;;;5078542;28;20346;-77
2024/03/16 12:28:11;;;;;;;;;;;9.10;99.90;;;;;;5060223;28;19924;-79
2024/03/16 12:30:37;;;;;;;;;;;9.10;99.90;;;;;;5060903;28;19947;-79
2024/03/16 12:33:04;;;;;;;;;;;9.10;99.90;;;;;;5062652;28;19916;-79
2024/03/16 12:35:32;;;;;;;;;;;9.10;99.90;;;;;;5042117;28;19963;-78
2024/03/16 12:38:00;;;;;;;;;;;9.00;99.90;;;;;;5071620;28;19981;-77
2024/03/16 12:40:26;;;;;;;;;;;9.00;99.90;;;;;;5040634;28;19920;-77
2024/03/16 12:42:54;;;;;;;;;;;9.10;99.90;;;;;;5059960;28;20340;-78
2024/03/16 12:45:22;;;;;;;;;;;9.20;99.90;;;;;;5075783;28;19948;-77
2024/03/16 12:47:48;;;;;;;;;;;9.30;99.90;;;;;;5090935;28;19920;-77
2024/03/16 12:50:13;;;;;;;;;;;9.20;99.90;;;;;;5091826;28;19913;-76
2024/03/16 12:52:39;;;;;;;;;;;9.30;99.90;;;;;;5076830;28;19916;-76
2024/03/16 12:55:07;;;;;;;;;;;9.30;99.90;;;;;;5095726;28;19942;-79
2024/03/16 12:57:33;;;;;;;;;;;9.30;99.90;;;;;;5078151;28;19923;-76
2024/03/16 12:59:59;;;;;;;;;;;9.30;99.90;;;;;;5072623;28;19924;-77
2024/03/16 13:02:26;;;;;;;;;;;9.20;99.90;;;;;;5073934;28;19913;-79
2024/03/16 13:04:55;;;;;;;;;;;9.20;99.90;;;;;;5062117;28;19916;-78
2024/03/16 13:07:22;;;;;;;;;;;9.20;99.90;;;;;;5112083;28;19981;-78
2024/03/16 13:09:49;;;;;;;;;;;9.20;99.90;;;;;;5060474;28;19946;-76
2024/03/16 13:12:16;;;;;;;;;;;9.20;99.90;;;;;;5093051;28;19939;-77
2024/03/16 13:14:43;;;;;;;;;;;9.20;99.90;;;;;;5043464;28;20412;-78
2024/03/16 13:17:08;;;;;;;;;;;9.20;99.90;;;;;;5056408;28;19913;-77
2024/03/16 13:19:34;;;;;;;;;;;9.20;99.90;;;;;;5056088;28;19916;-78
2024/03/16 13:21:59;;;;;;;;;;;9.30;99.90;;;;;;5039953;28;19918;-76
2024/03/16 13:24:26;;;;;;;;;;;9.30;99.90;;;;;;5080026;28;19939;-76
2024/03/16 13:26:51;;;;;;;;;;;9.30;99.90;;;;;;5060109;28;19947;-77
2024/03/16 13:29:18;;;;;;;;;;;9.30;99.90;;;;;;5077791;28;19916;-77
2024/03/16 13:31:43;;;;;;;;;;;9.30;99.90;;;;;;5076765;28;19916;-77
2024/03/16 13:34:09;;;;;;;;;;;9.30;99.90;;;;;;5041464;28;20254;-77
2024/03/16 13:36:35;;;;;;;;;;;9.20;99.90;;;;;;5047217;28;20007;-77
2024/03/16 13:39:07;;;;;;;;;;;9.20;99.90;;;;;;5058549;28;19924;-78
2024/03/16 13:41:33;;;;;;;;;;;9.20;99.90;;;;;;5039952;28;20297;-76
2024/03/16 13:43:59;;;;;;;;;;;9.30;99.90;;;;;;5057926;28;20317;-76
2024/03/16 13:46:25;;;;;;;;;;;9.30;99.90;;;;;;5040434;28;19923;-77
2024/03/16 13:48:57;;;;;;;;;;;9.30;99.90;;;;;;5056295;28;19957;-76
2024/03/16 13:51:26;;;;;;;;;;;9.30;99.90;;;;;;5090811;28;19916;-77
2024/03/16 13:53:54;;;;;;;;;;;9.30;99.90;;;;;;5076003;28;19959;-78
2024/03/16 13:56:19;;;;;;;;;;;9.40;99.90;;;;;;5085030;28;20385;-77
2024/03/16 13:58:45;;;;;;;;;;;9.40;99.90;;;;;;5060667;28;19917;-79
2024/03/16 14:01:11;;;;;;;;;;;9.40;99.90;;;;;;5080440;28;20429;-77
2024/03/16 14:03:37;;;;;;;;;;;9.40;99.90;;;;;;5076488;28;19917;-78
2024/03/16 14:06:02;;;;;;;;;;;9.30;99.90;;;;;;5071064;28;19976;-78
2024/03/16 14:08:28;;;;;;;;;;;9.30;99.90;;;;;;5081605;28;19917;-77
2024/03/16 14:10:56;;;;;;;;;;;9.20;99.90;;;;;;5044290;28;19921;-78
2024/03/16 14:13:22;;;;;;;;;;;9.20;99.90;;;;;;5045243;28;19917;-77
2024/03/16 14:15:48;;;;;;;;;;;9.30;99.90;;;;;;5061974;28;19932;-78
2024/03/16 14:18:13;;;;;;;;;;;9.20;99.90;;;;;;5062485;28;19923;-79